Time;durP1;ratioP1;P1;durP2;ratioP2;P2;SDS_P1;SDS_P2;PMS_P1;PMS_P2;Temp;Humidity;BMP_temperature;BMP_pressure;BME280_temperature;BME280_humidity;BME280_pressure;Samples;Min_cycle;Max_cycle;Signal;HPM_P1;HPM_P2
2023/05/03 00:00:39;;;;;;;5.90;2.03;;;;;;;9.33;61.04;102165.22;5114399;28;20440;-64
2023/05/03 00:03:06;;;;;;;6.80;1.70;;;;;;;9.28;61.92;102154.34;5114480;28;20459;-63
2023/05/03 00:05:33;;;;;;;7.83;1.80;;;;;;;9.37;60.91;102162.03;5114492;28;20443;-64
2023/05/03 00:07:59;;;;;;;5.90;1.87;;;;;;;9.33;61.36;102159.00;5114522;28;20444;-64
2023/05/03 00:10:26;;;;;;;6.97;1.97;;;;;;;9.34;61.75;102164.16;5114126;28;20450;-64
2023/05/03 00:12:55;;;;;;;5.70;1.77;;;;;;;9.39;61.31;102162.59;5114328;28;20455;-64
2023/05/03 00:15:21;;;;;;;5.33;1.50;;;;;;;9.29;61.91;102166.78;5114011;28;20632;-64
2023/05/03 00:17:48;;;;;;;5.00;1.10;;;;;;;9.28;62.19;102164.34;5113968;28;20439;-64
2023/05/03 00:20:16;;;;;;;6.27;1.90;;;;;;;9.29;62.22;102164.09;5113957;28;20448;-62
2023/05/03 00:22:42;;;;;;;9.50;1.60;;;;;;;9.22;62.50;102171.59;5113912;28;20464;-64
2023/05/03 00:25:09;;;;;;;7.60;1.40;;;;;;;9.14;63.18;102161.22;5114230;28;20451;-64
2023/05/03 00:27:36;;;;;;;6.60;1.37;;;;;;;9.10;63.39;102168.19;5114041;28;20581;-64
2023/05/03 00:30:05;;;;;;;6.30;1.67;;;;;;;9.02;63.94;102164.03;5114100;28;20976;-63
2023/05/03 00:32:33;;;;;;;5.03;1.30;;;;;;;8.87;64.58;102160.34;5113493;28;20997;-64
2023/05/03 00:34:59;;;;;;;5.07;1.33;;;;;;;8.90;64.88;102170.63;5119396;22;21160;-80
2023/05/03 00:37:26;;;;;;;8.00;1.60;;;;;;;8.94;64.18;102166.38;5098764;28;20523;-79
2023/05/03 00:39:53;;;;;;;8.10;2.17;;;;;;;8.83;65.63;102163.53;5100763;28;20816;-79
2023/05/03 00:42:19;;;;;;;5.30;1.40;;;;;;;8.74;65.82;102156.94;5100681;28;20476;-80
2023/05/03 00:44:46;;;;;;;8.87;2.30;;;;;;;8.73;65.62;102155.31;5106500;22;21032;-83
2023/05/03 00:47:16;;;;;;;7.27;1.73;;;;;;;8.71;67.05;102154.72;5097783;28;20908;-82
2023/05/03 00:49:43;;;;;;;6.87;1.70;;;;;;;8.70;66.97;102163.91;5097070;28;20583;-82
2023/05/03 00:52:10;;;;;;;6.40;2.17;;;;;;;8.58;66.50;102160.47;5096876;28;20448;-82
2023/05/03 00:54:37;;;;;;;5.33;1.63;;;;;;;8.51;66.93;102165.25;5096669;28;20484;-82
2023/05/03 00:57:05;;;;;;;5.30;1.40;;;;;;;8.39;67.88;102159.13;5098251;28;20472;-82
2023/05/03 00:59:33;;;;;;;5.57;1.70;;;;;;;8.34;68.36;102160.66;5097828;28;20459;-82
2023/05/03 01:02:00;;;;;;;8.43;1.83;;;;;;;8.21;68.92;102158.28;5098813;28;21000;-81
2023/05/03 01:04:28;;;;;;;7.30;1.53;;;;;;;8.16;68.77;102155.53;5097601;28;20439;-83
2023/05/03 01:07:04;;;;;;;17.13;1.70;;;;;;;8.18;68.43;102166.06;5097798;28;20494;-81
2023/05/03 01:09:38;;;;;;;6.53;1.50;;;;;;;8.11;68.43;102155.44;5100261;28;20501;-83
2023/05/03 01:12:27;;;;;;;4.90;1.33;;;;;;;8.08;69.22;102164.03;5101927;28;20939;-82
2023/05/03 01:15:02;;;;;;;8.20;1.83;;;;;;;7.96;69.88;102156.00;5100992;28;20492;-82
2023/05/03 01:17:35;;;;;;;7.33;1.83;;;;;;;7.99;69.96;102162.78;5100317;28;20903;-82
2023/05/03 01:20:09;;;;;;;5.07;1.40;;;;;;;7.92;70.96;102164.81;5102231;28;20470;-83
2023/05/03 01:22:42;;;;;;;5.67;1.40;;;;;;;7.90;71.58;102161.56;5102687;28;20527;-83
2023/05/03 01:25:12;;;;;;;10.17;1.77;;;;;;;7.89;72.07;102168.84;5106337;28;20459;-82
2023/05/03 01:27:39;;;;;;;6.03;1.60;;;;;;;7.85;71.52;102178.47;5100031;28;20998;-82
2023/05/03 01:30:09;;;;;;;4.67;1.00;;;;;;;7.70;73.47;102172.78;5101978;28;20522;-82
2023/05/03 01:32:50;;;;;;;5.83;1.87;;;;;;;7.76;72.27;102179.94;5101029;28;20555;-82
2023/05/03 01:35:26;;;;;;;6.80;1.57;;;;;;;7.70;72.59;102179.03;5100710;28;20570;-81
2023/05/03 01:37:55;;;;;;;5.07;1.30;;;;;;;7.66;72.19;102175.19;5100738;28;20440;-81
2023/05/03 01:40:27;;;;;;;6.70;1.90;;;;;;;7.58;73.56;102180.97;5101569;28;20443;-81
2023/05/03 01:42:55;;;;;;;6.77;1.40;;;;;;;7.56;73.77;102185.75;5102498;28;20852;-81
2023/05/03 01:45:22;;;;;;;6.37;1.97;;;;;;;7.62;73.33;102175.91;5103548;28;20476;-82
2023/05/03 01:47:49;;;;;;;5.67;1.40;;;;;;;7.55;74.26;102181.44;5099259;28;20511;-81
2023/05/03 01:50:16;;;;;;;6.23;2.00;;;;;;;7.53;74.01;102178.19;5099105;28;20472;-81
2023/05/03 01:52:43;;;;;;;4.93;1.20;;;;;;;7.45;74.84;102175.88;5099207;28;20468;-81
2023/05/03 01:55:10;;;;;;;7.50;1.80;;;;;;;7.41;75.28;102175.53;5098890;28;20472;-81
2023/05/03 01:57:38;;;;;;;8.10;1.90;;;;;;;7.28;75.66;102170.41;5099006;28;20445;-81
2023/05/03 02:00:06;;;;;;;5.63;1.50;;;;;;;7.26;75.97;102172.50;5099214;28;20455;-81
2023/05/03 02:02:33;;;;;;;5.70;1.43;;;;;;;7.26;76.75;102165.28;5099578;28;20531;-81
2023/05/03 02:04:59;;;;;;;8.23;1.43;;;;;;;7.23;76.91;102170.31;5099343;28;20552;-81
2023/05/03 02:07:26;;;;;;;7.90;2.10;;;;;;;7.15;77.21;102174.19;5099789;28;20481;-81
2023/05/03 02:09:53;;;;;;;5.20;1.40;;;;;;;7.00;78.38;102163.94;5098928;28;20831;-81
2023/05/03 02:12:19;;;;;;;9.57;1.70;;;;;;;6.84;79.35;102178.13;5098485;28;20855;-78
2023/05/03 02:14:47;;;;;;;6.00;2.00;;;;;;;6.77;79.87;102185.50;5098688;28;20525;-79
2023/05/03 02:17:16;;;;;;;6.53;1.83;;;;;;;6.75;79.74;102183.06;5100106;28;20479;-80
2023/05/03 02:19:43;;;;;;;5.87;1.70;;;;;;;6.67;78.17;102187.97;5098915;28;20455;-80
2023/05/03 02:22:09;;;;;;;7.17;2.00;;;;;;;6.58;76.99;102185.63;5099700;28;20993;-81
2023/05/03 02:24:36;;;;;;;5.33;1.53;;;;;;;6.51;76.48;102192.22;5099846;28;20521;-81
2023/05/03 02:27:03;;;;;;;8.03;1.63;;;;;;;6.34;77.77;102185.88;5099563;28;20482;-82
2023/05/03 02:29:30;;;;;;;5.17;1.30;;;;;;;6.21;77.41;102189.59;5100035;28;20511;-81
2023/05/03 02:31:58;;;;;;;5.20;1.57;;;;;;;6.18;77.72;102190.88;5099734;28;21006;-81
2023/05/03 02:34:26;;;;;;;6.83;2.00;;;;;;;6.11;78.16;102189.34;5099284;28;21090;-81
2023/05/03 02:36:53;;;;;;;6.50;1.80;;;;;;;6.09;78.28;102194.13;5099893;28;20433;-81
2023/05/03 02:39:20;;;;;;;6.37;2.03;;;;;;;5.90;80.21;102188.00;5099909;28;20482;-81
2023/05/03 02:41:46;;;;;;;5.93;1.73;;;;;;;5.96;81.08;102192.47;5100569;28;20547;-81
2023/05/03 02:44:13;;;;;;;6.33;1.70;;;;;;;5.80;83.05;102191.25;5100088;28;20923;-81
2023/05/03 02:46:40;;;;;;;5.47;1.30;;;;;;;5.78;83.79;102196.84;5100730;28;20516;-81
2023/05/03 02:49:09;;;;;;;8.73;2.20;;;;;;;5.74;83.89;102197.53;5100421;28;20440;-81
2023/05/03 02:51:35;;;;;;;6.53;2.10;;;;;;;5.74;84.48;102201.03;5101095;28;21006;-82
2023/05/03 02:54:02;;;;;;;5.67;1.70;;;;;;;5.78;84.23;102198.69;5102500;28;20441;-82
2023/05/03 02:56:29;;;;;;;5.23;1.63;;;;;;;5.76;84.16;102200.81;5102747;28;20539;-82
2023/05/03 02:58:56;;;;;;;6.40;1.97;;;;;;;5.70;84.65;102202.53;5102666;28;20444;-82
2023/05/03 03:01:22;;;;;;;5.63;1.87;;;;;;;5.57;85.10;102203.53;5102509;28;20472;-84
2023/05/03 03:03:49;;;;;;;5.30;1.50;;;;;;;5.51;85.29;102203.63;5100846;28;20451;-82
2023/05/03 03:06:17;;;;;;;5.90;1.97;;;;;;;5.48;85.61;102207.56;5103150;28;20456;-82
2023/05/03 03:08:44;;;;;;;6.13;1.50;;;;;;;5.40;86.45;102209.75;5103898;28;20465;-82
2023/05/03 03:11:10;;;;;;;7.23;1.80;;;;;;;5.42;86.40;102210.38;5104596;28;20442;-82
2023/05/03 03:13:39;;;;;;;9.10;1.67;;;;;;;5.31;86.42;102210.09;5108793;28;20467;-82
2023/05/03 03:16:06;;;;;;;13.93;1.83;;;;;;;5.20;87.39;102218.88;5102063;28;20517;-81
2023/05/03 03:18:33;;;;;;;9.03;1.83;;;;;;;5.20;87.33;102208.13;5099888;28;20496;-81
2023/05/03 03:21:01;;;;;;;6.70;2.23;;;;;;;5.33;86.75;102217.91;5100396;28;20448;-81
2023/05/03 03:23:29;;;;;;;11.97;2.00;;;;;;;5.34;86.52;102218.72;5101261;28;20524;-82
2023/05/03 03:25:56;;;;;;;9.37;2.10;;;;;;;5.36;86.51;102214.78;5102014;28;20452;-83
2023/05/03 03:28:23;;;;;;;6.53;1.90;;;;;;;5.30;86.30;102221.03;5098353;28;20994;-83
2023/05/03 03:30:50;;;;;;;9.70;2.13;;;;;;;5.20;85.57;102218.88;5098197;28;20500;-82
2023/05/03 03:33:16;;;;;;;7.57;2.03;;;;;;;5.17;83.89;102229.25;5097971;28;20524;-82
2023/05/03 03:35:43;;;;;;;5.90;1.83;;;;;;;5.16;83.50;102224.94;5098530;28;20464;-82
2023/05/03 03:38:09;;;;;;;4.97;1.40;;;;;;;5.10;84.07;102221.28;5097672;28;20448;-82
2023/05/03 03:40:37;;;;;;;7.63;2.10;;;;;;;4.95;84.26;102227.00;5097378;28;20542;-82
2023/05/03 03:43:04;;;;;;;7.10;2.20;;;;;;;4.98;84.21;102228.44;5097560;28;20429;-82
2023/05/03 03:45:31;;;;;;;7.80;2.00;;;;;;;4.76;84.47;102228.84;5097194;28;21103;-82
2023/05/03 03:47:57;;;;;;;5.20;1.70;;;;;;;4.69;84.81;102228.13;5097204;28;20578;-82
2023/05/03 03:50:24;;;;;;;7.80;2.20;;;;;;;4.68;84.81;102228.31;5097265;28;20523;-82
2023/05/03 03:52:51;;;;;;;5.80;1.87;;;;;;;4.70;84.93;102235.13;5096788;28;20524;-82
2023/05/03 03:55:18;;;;;;;6.20;2.00;;;;;;;4.67;85.05;102230.19;5096855;28;20963;-82
2023/05/03 03:57:46;;;;;;;8.47;2.10;;;;;;;4.74;85.41;102236.31;5096010;28;20531;-81
2023/05/03 04:00:13;;;;;;;5.87;2.07;;;;;;;4.73;86.28;102234.66;5096074;28;20516;-82
2023/05/03 04:02:40;;;;;;;7.90;2.27;;;;;;;4.69;87.72;102241.53;5096418;28;20429;-82
2023/05/03 04:05:07;;;;;;;5.50;1.53;;;;;;;4.84;87.24;102243.88;5096419;28;20986;-81
2023/05/03 04:07:34;;;;;;;6.27;1.70;;;;;;;4.86;87.26;102244.44;5096234;28;20485;-82
2023/05/03 04:10:00;;;;;;;6.77;2.13;;;;;;;4.79;88.00;102249.91;5097493;28;20471;-81
2023/05/03 04:12:27;;;;;;;7.20;1.77;;;;;;;4.84;87.87;102246.53;5096813;28;20436;-82
2023/05/03 04:14:56;;;;;;;5.80;1.60;;;;;;;4.81;87.99;102246.97;5096609;28;21001;-82
2023/05/03 04:17:22;;;;;;;5.50;1.83;;;;;;;4.78;89.10;102250.94;5097598;28;20476;-82
2023/05/03 04:19:49;;;;;;;7.03;2.00;;;;;;;4.84;88.76;102248.41;5096856;28;20874;-81
2023/05/03 04:22:15;;;;;;;11.17;2.20;;;;;;;4.80;89.45;102256.91;5097203;28;20497;-82
2023/05/03 04:24:42;;;;;;;5.90;1.67;;;;;;;4.88;89.44;102257.66;5098024;28;20484;-81
2023/05/03 04:27:10;;;;;;;7.70;2.10;;;;;;;5.09;88.45;102262.63;5098807;28;20575;-81
2023/05/03 04:29:37;;;;;;;7.50;2.10;;;;;;;5.06;88.67;102271.94;5098828;28;20449;-81
2023/05/03 04:32:07;;;;;;;8.43;1.80;;;;;;;5.04;89.34;102273.19;5100124;28;20447;-83
2023/05/03 04:34:33;;;;;;;6.27;1.70;;;;;;;4.95;90.09;102267.28;5103168;28;20436;-81
2023/05/03 04:37:00;;;;;;;8.80;2.10;;;;;;;5.00;90.10;102278.19;5103913;28;20474;-81
2023/05/03 04:39:27;;;;;;;5.17;1.67;;;;;;;5.02;90.73;102277.97;5105180;28;20425;-81
2023/05/03 04:41:53;;;;;;;5.80;1.80;;;;;;;5.14;90.84;102278.88;5105699;28;20497;-81
2023/05/03 04:44:21;;;;;;;6.93;2.33;;;;;;;5.07;91.16;102283.50;5102925;28;20871;-81
2023/05/03 04:46:48;;;;;;;11.90;2.13;;;;;;;5.16;89.70;102292.91;5096201;28;20428;-81
2023/05/03 04:49:16;;;;;;;8.60;1.80;;;;;;;5.22;88.07;102286.66;5095892;28;20466;-81
2023/05/03 04:51:43;;;;;;;9.63;2.37;;;;;;;5.31;87.31;102289.84;5095718;28;20455;-81
2023/05/03 04:54:09;;;;;;;7.03;2.00;;;;;;;5.49;85.59;102295.25;5095040;28;20531;-82
2023/05/03 04:56:36;;;;;;;6.40;2.10;;;;;;;5.54;84.31;102292.69;5095337;28;20497;-81
2023/05/03 04:59:04;;;;;;;8.33;1.90;;;;;;;5.60;84.01;102288.28;5096063;28;20454;-81
2023/05/03 05:01:31;;;;;;;9.03;2.73;;;;;;;5.73;83.64;102293.47;5095881;28;20498;-82
2023/05/03 05:03:58;;;;;;;9.83;2.33;;;;;;;5.85;82.57;102288.19;5094652;28;20476;-81
2023/05/03 05:06:26;;;;;;;5.50;1.53;;;;;;;5.85;82.72;102293.56;5095166;28;20505;-81
2023/05/03 05:08:52;;;;;;;8.60;2.10;;;;;;;6.02;82.46;102296.44;5095432;28;20516;-81
2023/05/03 05:11:19;;;;;;;6.47;2.20;;;;;;;6.07;81.77;102296.59;5095199;28;20488;-82
2023/05/03 05:13:46;;;;;;;8.50;2.10;;;;;;;6.23;81.37;102293.25;5095729;28;20443;-80
2023/05/03 05:16:14;;;;;;;5.23;1.63;;;;;;;6.33;79.59;102300.78;5096125;28;20500;-81
2023/05/03 05:18:41;;;;;;;5.20;1.67;;;;;;;6.43;79.89;102302.91;5095629;28;20805;-80
2023/05/03 05:21:07;;;;;;;5.67;1.73;;;;;;;6.53;78.94;102298.59;5096010;28;20441;-82
2023/05/03 05:23:35;;;;;;;7.67;1.70;;;;;;;6.60;78.04;102303.88;5095172;28;20471;-82
2023/05/03 05:26:03;;;;;;;6.47;1.80;;;;;;;6.68;77.87;102300.00;5095926;28;20567;-82
2023/05/03 05:28:30;;;;;;;5.13;1.50;;;;;;;6.73;78.36;102302.81;5096149;28;20492;-81
2023/05/03 05:30:56;;;;;;;9.03;2.00;;;;;;;6.83;77.87;102309.28;5095950;28;20440;-81
2023/05/03 05:33:23;;;;;;;5.20;1.50;;;;;;;6.91;77.05;102315.38;5096243;28;20532;-81
2023/05/03 05:35:50;;;;;;;8.30;1.43;;;;;;;7.00;76.67;102324.75;5096296;28;20897;-82
2023/05/03 05:38:17;;;;;;;4.70;0.97;;;;;;;7.05;75.86;102323.00;5096060;28;20480;-82
2023/05/03 05:40:45;;;;;;;6.93;1.60;;;;;;;7.17;75.98;102320.31;5095167;28;20455;-83
2023/05/03 05:43:12;;;;;;;5.53;1.50;;;;;;;7.30;73.98;102311.97;5097725;28;20441;-81
2023/05/03 05:45:39;;;;;;;4.90;1.43;;;;;;;7.36;74.00;102320.16;5096442;28;20970;-80
2023/05/03 05:48:07;;;;;;;6.00;1.53;;;;;;;7.44;74.95;102323.31;5097009;28;20567;-80
2023/05/03 05:50:33;;;;;;;4.63;1.03;;;;;;;7.51;73.17;102331.25;5095495;28;20452;-77
2023/05/03 05:53:00;;;;;;;6.60;1.60;;;;;;;7.53;72.53;102332.69;5093529;28;20541;-77
2023/05/03 05:55:27;;;;;;;5.00;1.23;;;;;;;7.40;73.38;102319.47;5093387;28;20545;-77
2023/05/03 05:57:55;;;;;;;7.03;1.73;;;;;;;7.55;72.97;102330.56;5093375;28;20468;-78
2023/05/03 06:00:23;;;;;;;8.00;1.97;;;;;;;7.57;74.05;102331.16;5094153;28;20448;-77
2023/05/03 06:02:50;;;;;;;11.10;1.43;;;;;;;7.60;73.57;102335.22;5093078;28;20429;-77
2023/05/03 06:05:17;;;;;;;4.90;1.40;;;;;;;7.76;72.95;102334.50;5094882;28;20460;-78
2023/05/03 06:07:43;;;;;;;5.70;1.20;;;;;;;7.81;72.48;102342.69;5095088;28;20575;-78
2023/05/03 06:10:11;;;;;;;6.00;2.00;;;;;;;7.88;73.19;102341.72;5095266;28;20494;-77
2023/05/03 06:12:37;;;;;;;7.93;1.40;;;;;;;8.00;71.37;102339.81;5093870;28;20448;-78
2023/05/03 06:15:07;;;;;;;5.40;1.20;;;;;;;8.01;71.98;102341.44;5095415;28;20448;-78
2023/05/03 06:17:34;;;;;;;5.07;1.57;;;;;;;8.07;71.60;102346.72;5096904;28;20440;-77
2023/05/03 06:20:01;;;;;;;6.30;1.50;;;;;;;8.10;71.94;102340.00;5097753;28;20447;-78
2023/05/03 06:22:27;;;;;;;7.47;1.70;;;;;;;8.22;71.79;102348.06;5097183;28;20524;-77
2023/05/03 06:24:54;;;;;;;4.97;1.20;;;;;;;8.26;72.03;102349.22;5097165;28;20491;-77
2023/05/03 06:27:21;;;;;;;5.40;1.07;;;;;;;8.39;72.34;102343.56;5098922;28;20451;-79
2023/05/03 06:29:48;;;;;;;5.17;1.30;;;;;;;8.54;71.51;102348.38;5099586;28;20465;-77
2023/05/03 06:32:16;;;;;;;4.80;1.03;;;;;;;8.64;70.80;102340.47;5098081;28;20432;-78
2023/05/03 06:34:43;;;;;;;13.10;1.93;;;;;;;8.73;70.15;102349.81;5098910;28;20453;-78
2023/05/03 06:37:10;;;;;;;5.57;1.80;;;;;;;8.79;71.38;102342.59;5099407;28;20449;-77
2023/05/03 06:39:36;;;;;;;5.43;1.40;;;;;;;8.90;69.51;102347.13;5097181;28;20444;-76
2023/05/03 06:42:03;;;;;;;6.30;1.40;;;;;;;8.92;69.82;102346.88;5096271;28;20468;-77
2023/05/03 06:44:30;;;;;;;10.00;1.73;;;;;;;8.95;68.34;102347.19;5096025;28;20547;-77
2023/05/03 06:46:56;;;;;;;5.23;1.27;;;;;;;9.10;67.27;102352.81;5096404;28;20425;-77
2023/05/03 06:49:24;;;;;;;7.63;1.43;;;;;;;9.13;67.22;102348.81;5095849;28;20563;-77
2023/05/03 06:51:51;;;;;;;5.80;1.17;;;;;;;9.06;66.75;102343.56;5097559;28;20441;-77
2023/05/03 06:54:18;;;;;;;10.43;1.20;;;;;;;9.11;66.59;102345.53;5095997;28;20527;-78
2023/05/03 06:56:45;;;;;;;6.27;1.40;;;;;;;9.11;68.08;102342.84;5096274;28;20448;-76
2023/05/03 06:59:12;;;;;;;12.97;1.90;;;;;;;9.16;67.65;102351.00;5095826;28;20863;-76
2023/05/03 07:01:39;;;;;;;6.30;1.10;;;;;;;9.19;67.73;102350.53;5095898;28;20527;-76
2023/05/03 07:04:06;;;;;;;5.50;1.50;;;;;;;9.29;68.47;102347.97;5095737;28;20448;-77
2023/05/03 07:06:33;;;;;;;5.67;1.23;;;;;;;9.36;67.33;102339.69;5095666;28;20484;-76
2023/05/03 07:09:00;;;;;;;4.93;1.17;;;;;;;9.37;64.80;102354.03;5095471;28;20567;-75
2023/05/03 07:11:27;;;;;;;5.57;1.30;;;;;;;9.39;64.20;102354.59;5095581;28;20531;-76
2023/05/03 07:13:54;;;;;;;6.07;1.30;;;;;;;9.44;66.17;102349.25;5095634;28;20536;-76
2023/05/03 07:16:21;;;;;;;4.83;1.27;;;;;;;9.53;65.11;102339.66;5095203;28;20522;-76
2023/05/03 07:18:49;;;;;;;7.37;1.10;;;;;;;9.55;65.07;102346.44;5095515;28;20490;-76
2023/05/03 07:21:16;;;;;;;8.20;1.10;;;;;;;9.58;63.73;102345.13;5095094;28;20959;-76
2023/05/03 07:23:44;;;;;;;12.60;1.80;;;;;;;9.72;62.11;102340.97;5095455;28;20516;-76
2023/05/03 07:26:11;;;;;;;7.50;1.87;;;;;;;9.85;61.16;102351.41;5094433;28;21033;-76
2023/05/03 07:28:37;;;;;;;5.60;1.30;;;;;;;9.85;60.60;102348.69;5095001;28;20539;-76
2023/05/03 07:31:04;;;;;;;5.07;1.20;;;;;;;9.79;61.26;102346.19;5095172;28;20456;-76
2023/05/03 07:33:34;;;;;;;4.67;1.13;;;;;;;9.89;60.39;102346.31;5094987;28;20436;-77
2023/05/03 07:36:01;;;;;;;8.93;1.90;;;;;;;9.97;59.47;102348.59;5095190;28;20532;-76
2023/05/03 07:38:27;;;;;;;5.23;1.87;;;;;;;9.99;60.30;102342.91;5094922;28;20531;-76
2023/05/03 07:40:55;;;;;;;7.57;1.53;;;;;;;10.05;60.06;102340.00;5095054;28;20440;-76
2023/05/03 07:43:22;;;;;;;5.50;1.37;;;;;;;10.05;59.61;102342.72;5094821;28;21019;-76
2023/05/03 07:45:49;;;;;;;7.43;1.17;;;;;;;10.31;58.78;102351.97;5094738;28;20872;-76
2023/05/03 07:48:15;;;;;;;5.70;1.37;;;;;;;10.40;58.13;102346.88;5094993;28;20489;-77
2023/05/03 07:50:42;;;;;;;5.70;1.40;;;;;;;10.41;58.13;102345.81;5094872;28;20452;-76
2023/05/03 07:53:09;;;;;;;5.27;1.43;;;;;;;10.41;57.20;102335.00;5095010;28;20452;-77
2023/05/03 07:55:36;;;;;;;4.97;1.33;;;;;;;10.47;58.75;102335.84;5094773;28;20507;-76
2023/05/03 07:58:04;;;;;;;5.50;1.10;;;;;;;10.56;59.31;102345.16;5094763;28;20448;-77
2023/05/03 08:00:31;;;;;;;4.60;1.00;;;;;;;10.65;58.55;102343.59;5094683;28;20440;-76
2023/05/03 08:02:58;;;;;;;7.40;1.30;;;;;;;10.67;58.52;102335.19;5094803;28;20444;-76
2023/05/03 08:05:24;;;;;;;6.20;1.40;;;;;;;10.84;58.11;102330.47;5094510;28;20468;-76
2023/05/03 08:07:51;;;;;;;5.93;1.30;;;;;;;10.93;57.76;102337.03;5094472;28;20480;-76
2023/05/03 08:10:18;;;;;;;6.90;1.87;;;;;;;11.01;58.24;102333.84;5094495;28;20524;-77
2023/05/03 08:12:45;;;;;;;6.20;1.20;;;;;;;11.01;57.22;102335.75;5095061;28;20495;-77
2023/05/03 08:15:13;;;;;;;5.10;1.20;;;;;;;11.08;58.72;102329.03;5094830;28;20475;-78
2023/05/03 08:17:41;;;;;;;4.87;1.10;;;;;;;11.02;57.89;102337.38;5094651;28;20533;-77
2023/05/03 08:20:09;;;;;;;6.73;1.07;;;;;;;10.98;57.30;102338.97;5094225;28;20935;-77
2023/05/03 08:22:36;;;;;;;4.77;0.90;;;;;;;10.96;58.16;102338.41;5094332;28;20463;-77
2023/05/03 08:25:04;;;;;;;6.03;1.10;;;;;;;10.90;57.98;102334.84;5094028;28;20468;-77
2023/05/03 08:27:31;;;;;;;7.00;1.60;;;;;;;10.95;57.80;102332.19;5094044;28;20440;-77
2023/05/03 08:29:58;;;;;;;6.03;1.00;;;;;;;11.00;56.60;102336.81;5093670;28;20520;-76
2023/05/03 08:32:27;;;;;;;6.73;1.57;;;;;;;11.06;56.75;102336.59;5093712;28;20448;-76
2023/05/03 08:34:54;;;;;;;5.00;1.23;;;;;;;11.21;56.08;102337.78;5093809;28;20896;-77
2023/05/03 08:37:21;;;;;;;8.13;1.17;;;;;;;11.30;55.97;102334.31;5093674;28;20476;-76
2023/05/03 08:39:48;;;;;;;7.73;1.60;;;;;;;11.45;54.10;102346.31;5093574;28;20508;-77
2023/05/03 08:42:15;;;;;;;4.67;1.10;;;;;;;11.44;53.16;102339.25;5093494;28;20523;-76
2023/05/03 08:44:46;;;;;;;5.50;1.20;;;;;;;11.26;54.00;102337.81;5093533;28;20560;-76
2023/05/03 08:47:14;;;;;;;6.13;1.27;;;;;;;11.26;54.25;102335.91;5093859;28;20424;-77
2023/05/03 08:49:42;;;;;;;12.13;1.20;;;;;;;11.27;54.09;102340.25;5093728;28;20486;-77
2023/05/03 08:52:10;;;;;;;5.90;0.80;;;;;;;11.26;53.01;102343.22;5093918;28;20448;-77
2023/05/03 08:54:38;;;;;;;5.43;1.27;;;;;;;11.30;52.79;102344.34;5093941;28;20468;-76
2023/05/03 08:57:10;;;;;;;4.70;1.20;;;;;;;11.28;52.88;102343.78;5093563;28;20527;-77
2023/05/03 08:59:46;;;;;;;5.93;1.63;;;;;;;11.37;54.87;102345.72;5093345;28;20979;-77
2023/05/03 09:02:14;;;;;;;5.20;1.20;;;;;;;11.47;54.02;102346.88;5094209;28;20448;-77
2023/05/03 09:04:43;;;;;;;6.17;1.33;;;;;;;11.59;54.12;102350.19;5093386;28;20457;-77
2023/05/03 09:07:11;;;;;;;5.40;1.17;;;;;;;11.64;53.10;102352.91;5093285;28;20821;-77
2023/05/03 09:09:38;;;;;;;5.40;1.30;;;;;;;11.75;53.00;102346.47;5093452;28;20574;-77
2023/05/03 09:12:05;;;;;;;4.70;0.87;;;;;;;11.80;53.09;102353.81;5093601;28;20483;-77
2023/05/03 09:14:42;;;;;;;6.63;1.43;;;;;;;11.80;53.86;102345.66;5093342;28;20520;-77
2023/05/03 09:17:15;;;;;;;6.33;1.40;;;;;;;11.97;51.97;102353.63;5093511;28;20435;-77
2023/05/03 09:19:53;;;;;;;4.80;1.00;;;;;;;11.85;53.06;102351.97;5093209;28;20935;-77
2023/05/03 09:22:20;;;;;;;4.60;1.10;;;;;;;12.07;53.76;102353.66;5093442;28;20413;-77
2023/05/03 09:24:54;;;;;;;7.47;1.10;;;;;;;12.17;52.89;102348.25;5093385;28;20496;-76
2023/05/03 09:27:21;;;;;;;6.60;1.23;;;;;;;12.23;51.51;102354.53;5093354;28;20536;-77
2023/05/03 09:29:48;;;;;;;5.03;0.97;;;;;;;12.07;49.59;102356.38;5095123;28;20484;-78
2023/05/03 09:32:15;;;;;;;8.60;2.13;;;;;;;11.98;50.45;102349.84;5093601;28;20450;-77
2023/05/03 09:34:43;;;;;;;5.20;1.10;;;;;;;11.93;50.60;102347.91;5093447;28;20459;-76
2023/05/03 09:37:12;;;;;;;6.40;1.63;;;;;;;11.99;51.44;102346.03;5093513;28;20471;-77
2023/05/03 09:39:40;;;;;;;4.97;0.90;;;;;;;12.12;51.02;102343.63;5093526;28;20946;-77
2023/05/03 09:42:11;;;;;;;6.30;1.67;;;;;;;12.33;50.47;102347.19;5093200;28;20476;-78
2023/05/03 09:44:42;;;;;;;8.43;1.23;;;;;;;12.32;51.08;102351.00;5093008;28;20509;-76
2023/05/03 09:47:10;;;;;;;4.73;1.00;;;;;;;12.49;50.21;102349.97;5092927;28;20868;-77
2023/05/03 09:49:38;;;;;;;8.40;1.30;;;;;;;12.64;51.04;102352.69;5094568;28;20476;-76
2023/05/03 09:52:05;;;;;;;5.50;1.10;;;;;;;12.79;51.46;102351.84;5096749;28;21004;-76
2023/05/03 09:54:35;;;;;;;4.50;1.10;;;;;;;12.92;51.28;102356.75;5097121;28;20436;-77
2023/05/03 09:57:03;;;;;;;5.00;1.37;;;;;;;13.03;49.23;102347.50;5097089;28;20446;-77
2023/05/03 09:59:30;;;;;;;4.90;1.03;;;;;;;12.92;50.86;102351.31;5097167;28;20447;-77
2023/05/03 10:01:58;;;;;;;5.90;1.23;;;;;;;13.05;49.00;102347.22;5097034;28;20468;-77
2023/05/03 10:04:27;;;;;;;8.07;1.30;;;;;;;13.02;48.91;102339.63;5097103;28;20447;-77
2023/05/03 10:06:59;;;;;;;4.80;1.10;;;;;;;12.99;48.79;102340.16;5097390;28;20472;-77
2023/05/03 10:09:32;;;;;;;5.03;1.20;;;;;;;13.07;47.93;102339.59;5097359;28;20972;-78
2023/05/03 10:12:02;;;;;;;8.00;1.30;;;;;;;13.11;48.11;102340.69;5096963;28;20431;-76
2023/05/03 10:14:28;;;;;;;8.73;1.37;;;;;;;13.19;49.01;102329.22;5096924;28;20819;-76
2023/05/03 10:16:59;;;;;;;4.77;1.13;;;;;;;13.43;50.15;102332.19;5096897;28;20429;-77
2023/05/03 10:19:33;;;;;;;8.00;1.10;;;;;;;13.77;48.69;102335.06;5096607;28;20524;-77
2023/05/03 10:22:05;;;;;;;6.37;1.10;;;;;;;14.06;48.08;102328.91;5096273;28;20797;-77
2023/05/03 10:24:32;;;;;;;5.87;1.23;;;;;;;14.17;46.49;102335.13;5097289;28;20440;-77
2023/05/03 10:27:00;;;;;;;5.43;1.20;;;;;;;14.19;45.79;102328.28;5096894;28;20969;-78
2023/05/03 10:29:48;;;;;;;4.83;1.43;;;;;;;14.19;47.70;102343.84;5096483;28;20575;-77
2023/05/03 10:32:38;;;;;;;8.60;1.37;;;;;;;14.55;48.79;102339.78;5097285;28;20443;-77
2023/05/03 10:35:08;;;;;;;5.80;1.60;;;;;;;14.80;45.75;102344.22;5097724;28;20502;-77
2023/05/03 10:37:36;;;;;;;5.77;1.13;;;;;;;15.00;46.02;102339.69;5097036;28;20997;-77
2023/05/03 10:40:10;;;;;;;5.83;1.03;;;;;;;14.69;46.17;102339.94;5096745;28;20920;-76
2023/05/03 10:42:39;;;;;;;5.67;1.10;;;;;;;14.63;47.21;102341.09;5097272;28;20511;-77
2023/05/03 10:45:08;;;;;;;4.57;1.00;;;;;;;14.29;46.54;102335.59;5097709;28;20471;-77
2023/05/03 10:47:35;;;;;;;5.80;1.43;;;;;;;14.31;47.75;102331.50;5097156;28;20440;-77
2023/05/03 10:50:27;;;;;;;5.17;1.23;;;;;;;14.18;46.36;102332.13;5097428;28;20527;-77
2023/05/03 10:52:54;;;;;;;4.70;0.90;;;;;;;14.23;46.64;102334.00;5097054;28;20580;-79
2023/05/03 10:55:23;;;;;;;5.20;1.00;;;;;;;14.17;48.27;102327.78;5096703;28;20509;-77
2023/05/03 10:57:54;;;;;;;4.80;1.30;;;;;;;14.17;46.70;102329.69;5097265;28;20440;-78
2023/05/03 11:00:27;;;;;;;13.03;1.47;;;;;;;14.41;46.89;102324.34;5095369;28;21007;-77
2023/05/03 11:03:27;;;;;;;4.87;0.90;;;;;;;14.76;47.38;102323.28;5096114;28;20405;-78
2023/05/03 11:05:53;;;;;;;4.77;1.10;;;;;;;14.95;47.29;102320.63;5097218;28;20468;-78
2023/05/03 11:08:21;;;;;;;4.70;1.03;;;;;;;14.69;46.75;102325.50;5096864;28;20531;-78
2023/05/03 11:10:50;;;;;;;4.70;1.10;;;;;;;14.63;47.01;102324.75;5096554;28;20563;-77
2023/05/03 11:13:18;;;;;;;7.47;1.37;;;;;;;14.50;47.10;102319.94;5095775;28;20939;-78
2023/05/03 11:15:45;;;;;;;7.00;1.73;;;;;;;15.16;45.86;102318.50;5096366;28;20989;-78
2023/05/03 11:18:12;;;;;;;4.70;1.00;;;;;;;16.00;46.04;102324.34;5096851;28;20857;-78
2023/05/03 11:20:38;;;;;;;5.40;1.27;;;;;;;17.00;44.34;102322.19;5100239;28;20861;-78
2023/05/03 11:23:06;;;;;;;8.23;1.70;;;;;;;17.92;42.49;102321.19;5101540;28;20455;-79
2023/05/03 11:25:33;;;;;;;12.00;1.90;;;;;;;18.64;39.44;102320.34;5101236;28;20959;-79
2023/05/03 11:28:00;;;;;;;6.10;1.30;;;;;;;19.47;38.52;102322.53;5102118;28;20455;-79
2023/05/03 11:30:28;;;;;;;5.20;0.90;;;;;;;19.98;36.88;102318.28;5102755;28;20488;-79
2023/05/03 11:32:56;;;;;;;5.23;1.00;;;;;;;19.63;36.91;102321.78;5100937;28;20511;-79